AirNav   ProFlight Series 2 Aviation Headset
 
 735 users online  

NH73 Meader's Heliport
Center Ossipee, New Hampshire, USA

GOING TO CENTER OSSIPEE?


FAA INFORMATION EFFECTIVE 16 JULY 2020

Location

FAA Identifier: NH73
Lat/Long: 43-47-34.2700N 071-10-38.2480W
43-47.571167N 071-10.637467W
43.7928528,-71.1772911
(estimated)
Elevation: 420 ft. / 128 m (estimated)
Variation: 17W (1990)
From city: 3 miles N of CENTER OSSIPEE, NH
Time zone: UTC -4 (UTC -5 during Standard Time)
Zip code: 03814

Heliport Operations

Heliport use: Private use. Permission required prior to landing
Activation date: 01/1993
Control tower: no
ARTCC: BOSTON CENTER
FSS: BANGOR FLIGHT SERVICE STATION
Attendance: UNATNDD
Wind indicator: yes
Segmented circle: no

Heliport Communications

WX ASOS at IZG (15 nm NE): 135.775 (207-935-2882)
WX AWOS-3PT at LCI (17 nm SW): 133.525 (603-524-5134)

Nearby radio navigation aids

VOR radial/distance  VOR name  Freq  Var
ENEr329/32.9KENNEBUNK VOR/DME117.1017W
CONr042/38.5CONCORD VOR/DME112.9015W

 
NDB name  Hdg/Dist  Freq  Var  ID
ROLLINS352/37.626016WESG . ... --.

Heliport Services

Runway Information

Helipad H1

Dimensions: 50 x 50 ft. / 15 x 15 m
Surface: asphalt/turf
Traffic pattern: leftleft

Heliport Ownership and Management from official FAA records

Ownership: Privately-owned
Owner: DONALD N MEADER
RT 16 BOX 267
CTR OSSIPEE, NH 03814
Phone 603-539-7772
Manager: DONALD N MEADER
RT 16 BOX 267
CTR OSSIPEE, NH 03814
Phone 603-539-7772

Heliport Operational Statistics

Aircraft based on the field: 1
Helicopters: 1
    

Additional Remarks

FOR CD CTC BOSTON ARTCC AT 603-879-6859.

Instrument Procedures

There are no published instrument procedures at NH73.

Some nearby airports with instrument procedures:

KIZG - Eastern Slopes Regional Airport (15 nm NE)
KLCI - Laconia Municipal Airport (17 nm SW)
KSFM - Sanford Seacoast Regional Airport (31 nm SE)
KDAW - Skyhaven Airport (32 nm S)
B19 - Biddeford Municipal Airport (36 nm SE)
 
Loc | Ops | Rwys | IFR | FBO | Links
Com | Nav | Svcs | Stats | Notes

Auburn-Lewiston Municipal Airport
 
Area around NH73 (Meader's Heliport)
 
Road maps at: MapQuest Bing Google
 
Aerial photo
No photo
 
Sectional chart

 
Airport distance calculator
Flying to Meader's Heliport? Find the distance to fly.

From to NH73

Sunrise and sunset
Times for 03-Aug-2020
 Local
(UTC-4)
 Zulu
(UTC)
Morning civil twilight05:0509:05
Sunrise05:3809:38
Sunset20:0400:04
Evening civil twilight20:3600:36

Current date and time
Zulu (UTC)  03-Aug-2020 11:58:34
Local (UTC-4)  03-Aug-2020 07:58:34
 
METAR
KCWN 
13nm N 
031058Z AUTO 00000KT 1/8SM FG VV001 14/13 A3024 RMK AO2 SLP074 T01370132 PWINO $
KIZG 
15nm NE 
031154Z AUTO VRB03KT 10SM FEW037 26/23 A2984 RMK AO2 SLP101 60002 70002 T02560228 10256 20200 50003 $
KLCI 
17nm SW 
031056Z AUTO 21010KT 10SM CLR 24/22 A2986 RMK AO2 SLP108 T02440222
K1P1 
25nm W 
031155Z AUTO 10SM CLR 25/17 A2986 RMK AO2 T02450174 10245 20196
TAF
KHIE 
38nm NW 
030857Z 0309/0406 VRB03KT P6SM SCT040 FM031300 27010G20KT P6SM SCT050 BKN250 FM032300 VRB03KT P6SM BKN200
KCON 
38nm S 
030857Z 0309/0406 20007KT P6SM BKN250 FM031400 27010G20KT P6SM SCT050 BKN250 FM040000 VRB03KT P6SM BKN200
KPWM 
39nm E 
030857Z 0309/0406 20007KT P6SM OVC005 FM031100 24008KT P6SM SCT010 BKN200 FM031500 27010G20KT P6SM SCT050 BKN200 FM040000 28004KT P6SM BKN200
KPSM 
46nm S 
030857Z 0309/0406 22007KT P6SM FEW050 BKN250 FM031500 27010G20KT P6SM SCT050 BKN250 FM032300 29004KT P6SM BKN200
NOTAMs
Click for the latest NOTAMs
NOTAMs are issued by the DoD/FAA and will open in a separate window not controlled by AirNav.

 

 
 

Would you like to see your business listed on this page?

 If your business provides an interesting product or service to pilots, flight crews, aircraft, or users of the Meader's Heliport, you should consider listing it here.  To start the listing process, click on the button below
 
Add a business
 

Other Pages about Meader's Heliport

Update a link
 
Copyright © AirNav, LLC. All rights reserved. Privacy Policy  Contact